sensor_id;sensor_type;location;lat;lon;timestamp;P1;durP1;ratioP1;P2;durP2;ratioP2
34317;SDS011;20582;52.196;20.952;2022-12-07T00:01:27;138.18;;;55.97;;
34317;SDS011;20582;52.196;20.952;2022-12-07T00:03:54;155.80;;;62.08;;
34317;SDS011;20582;52.196;20.952;2022-12-07T00:06:22;156.35;;;60.33;;
34317;SDS011;20582;52.196;20.952;2022-12-07T00:08:48;149.00;;;55.65;;
34317;SDS011;20582;52.196;20.952;2022-12-07T00:11:15;173.73;;;63.88;;
34317;SDS011;20582;52.196;20.952;2022-12-07T00:13:41;149.18;;;59.15;;
34317;SDS011;20582;52.196;20.952;2022-12-07T00:16:09;152.13;;;58.00;;
34317;SDS011;20582;52.196;20.952;2022-12-07T00:18:35;144.85;;;56.65;;
34317;SDS011;20582;52.196;20.952;2022-12-07T00:21:06;148.45;;;56.72;;
34317;SDS011;20582;52.196;20.952;2022-12-07T00:26:09;152.18;;;58.03;;
34317;SDS011;20582;52.196;20.952;2022-12-07T00:28:35;160.95;;;60.80;;
34317;SDS011;20582;52.196;20.952;2022-12-07T00:31:06;143.13;;;57.20;;
34317;SDS011;20582;52.196;20.952;2022-12-07T00:33:33;157.07;;;58.92;;
34317;SDS011;20582;52.196;20.952;2022-12-07T00:36:00;143.63;;;55.75;;
34317;SDS011;20582;52.196;20.952;2022-12-07T00:38:27;136.82;;;56.78;;
34317;SDS011;20582;52.196;20.952;2022-12-07T00:40:54;131.85;;;56.72;;
34317;SDS011;20582;52.196;20.952;2022-12-07T00:43:20;139.02;;;57.15;;
34317;SDS011;20582;52.196;20.952;2022-12-07T00:45:46;142.13;;;56.65;;
34317;SDS011;20582;52.196;20.952;2022-12-07T00:48:12;135.50;;;57.20;;
34317;SDS011;20582;52.196;20.952;2022-12-07T00:50:38;132.05;;;54.88;;
34317;SDS011;20582;52.196;20.952;2022-12-07T00:53:04;161.88;;;58.70;;
34317;SDS011;20582;52.196;20.952;2022-12-07T00:55:34;155.52;;;57.28;;
34317;SDS011;20582;52.196;20.952;2022-12-07T00:58:00;131.10;;;54.20;;
34317;SDS011;20582;52.196;20.952;2022-12-07T01:00:26;154.23;;;56.10;;
34317;SDS011;20582;52.196;20.952;2022-12-07T01:02:52;143.57;;;56.78;;
34317;SDS011;20582;52.196;20.952;2022-12-07T01:05:18;129.70;;;50.83;;
34317;SDS011;20582;52.196;20.952;2022-12-07T01:07:44;134.82;;;53.42;;
34317;SDS011;20582;52.196;20.952;2022-12-07T01:10:11;122.75;;;48.95;;
34317;SDS011;20582;52.196;20.952;2022-12-07T01:12:37;129.32;;;50.35;;
34317;SDS011;20582;52.196;20.952;2022-12-07T01:15:03;143.90;;;52.78;;
34317;SDS011;20582;52.196;20.952;2022-12-07T01:17:29;132.25;;;50.17;;
34317;SDS011;20582;52.196;20.952;2022-12-07T01:19:55;131.73;;;52.03;;
34317;SDS011;20582;52.196;20.952;2022-12-07T01:22:21;130.90;;;47.72;;
34317;SDS011;20582;52.196;20.952;2022-12-07T01:24:47;119.05;;;47.47;;
34317;SDS011;20582;52.196;20.952;2022-12-07T01:27:13;105.30;;;42.67;;
34317;SDS011;20582;52.196;20.952;2022-12-07T01:29:39;98.38;;;39.50;;
34317;SDS011;20582;52.196;20.952;2022-12-07T01:32:05;91.05;;;38.22;;
34317;SDS011;20582;52.196;20.952;2022-12-07T01:34:31;84.50;;;35.33;;
34317;SDS011;20582;52.196;20.952;2022-12-07T01:36:57;83.20;;;35.17;;
34317;SDS011;20582;52.196;20.952;2022-12-07T01:39:23;82.47;;;31.70;;
34317;SDS011;20582;52.196;20.952;2022-12-07T01:41:49;80.50;;;32.40;;
34317;SDS011;20582;52.196;20.952;2022-12-07T01:44:17;66.20;;;26.90;;
34317;SDS011;20582;52.196;20.952;2022-12-07T01:46:47;63.97;;;27.55;;
34317;SDS011;20582;52.196;20.952;2022-12-07T01:49:15;52.23;;;25.77;;
34317;SDS011;20582;52.196;20.952;2022-12-07T01:51:42;66.32;;;25.98;;
34317;SDS011;20582;52.196;20.952;2022-12-07T01:54:09;49.63;;;23.77;;
34317;SDS011;20582;52.196;20.952;2022-12-07T01:56:36;54.70;;;24.40;;
34317;SDS011;20582;52.196;20.952;2022-12-07T01:59:03;52.28;;;25.13;;
34317;SDS011;20582;52.196;20.952;2022-12-07T02:01:29;53.25;;;24.90;;
34317;SDS011;20582;52.196;20.952;2022-12-07T02:03:55;51.20;;;23.80;;
34317;SDS011;20582;52.196;20.952;2022-12-07T02:06:22;52.00;;;23.80;;
34317;SDS011;20582;52.196;20.952;2022-12-07T02:08:49;58.20;;;25.27;;
34317;SDS011;20582;52.196;20.952;2022-12-07T02:11:15;58.67;;;26.33;;
34317;SDS011;20582;52.196;20.952;2022-12-07T02:13:42;64.45;;;27.80;;
34317;SDS011;20582;52.196;20.952;2022-12-07T02:16:18;64.32;;;28.52;;
34317;SDS011;20582;52.196;20.952;2022-12-07T02:31:37;56.00;;;24.55;;
34317;SDS011;20582;52.196;20.952;2022-12-07T02:34:09;58.67;;;23.67;;
34317;SDS011;20582;52.196;20.952;2022-12-07T02:36:41;45.10;;;21.58;;
34317;SDS011;20582;52.196;20.952;2022-12-07T02:39:43;49.30;;;24.10;;
34317;SDS011;20582;52.196;20.952;2022-12-07T02:42:02;46.75;;;22.65;;
34317;SDS011;20582;52.196;20.952;2022-12-07T02:44:33;50.35;;;22.40;;
34317;SDS011;20582;52.196;20.952;2022-12-07T02:47:01;50.33;;;22.98;;
34317;SDS011;20582;52.196;20.952;2022-12-07T02:49:29;53.72;;;24.20;;
34317;SDS011;20582;52.196;20.952;2022-12-07T02:51:55;47.80;;;22.58;;
34317;SDS011;20582;52.196;20.952;2022-12-07T02:54:21;53.67;;;23.17;;
34317;SDS011;20582;52.196;20.952;2022-12-07T03:02:06;51.33;;;21.38;;
34317;SDS011;20582;52.196;20.952;2022-12-07T03:07:02;48.55;;;21.30;;
34317;SDS011;20582;52.196;20.952;2022-12-07T03:09:35;49.60;;;21.55;;
34317;SDS011;20582;52.196;20.952;2022-12-07T03:12:06;46.28;;;21.88;;
34317;SDS011;20582;52.196;20.952;2022-12-07T03:14:35;56.92;;;26.42;;
34317;SDS011;20582;52.196;20.952;2022-12-07T03:17:17;45.60;;;20.77;;
34317;SDS011;20582;52.196;20.952;2022-12-07T03:19:45;48.95;;;20.10;;
34317;SDS011;20582;52.196;20.952;2022-12-07T03:22:13;44.55;;;20.80;;
34317;SDS011;20582;52.196;20.952;2022-12-07T03:24:42;41.92;;;19.40;;
34317;SDS011;20582;52.196;20.952;2022-12-07T03:27:13;48.58;;;22.58;;
34317;SDS011;20582;52.196;20.952;2022-12-07T03:29:54;47.08;;;23.15;;
34317;SDS011;20582;52.196;20.952;2022-12-07T03:32:29;37.03;;;18.92;;
34317;SDS011;20582;52.196;20.952;2022-12-07T03:34:59;41.95;;;20.08;;
34317;SDS011;20582;52.196;20.952;2022-12-07T03:37:37;43.15;;;20.63;;
34317;SDS011;20582;52.196;20.952;2022-12-07T03:42:31;29.95;;;15.98;;
34317;SDS011;20582;52.196;20.952;2022-12-07T03:44:58;33.78;;;16.67;;
34317;SDS011;20582;52.196;20.952;2022-12-07T03:47:26;34.03;;;16.50;;
34317;SDS011;20582;52.196;20.952;2022-12-07T03:49:58;33.97;;;17.33;;
34317;SDS011;20582;52.196;20.952;2022-12-07T03:52:32;32.20;;;16.05;;
34317;SDS011;20582;52.196;20.952;2022-12-07T03:55:00;29.10;;;14.93;;
34317;SDS011;20582;52.196;20.952;2022-12-07T03:57:28;36.20;;;16.98;;
34317;SDS011;20582;52.196;20.952;2022-12-07T03:59:56;37.28;;;17.83;;
34317;SDS011;20582;52.196;20.952;2022-12-07T04:02:23;44.90;;;20.92;;
34317;SDS011;20582;52.196;20.952;2022-12-07T04:04:50;48.97;;;23.45;;
34317;SDS011;20582;52.196;20.952;2022-12-07T04:07:16;44.03;;;21.52;;
34317;SDS011;20582;52.196;20.952;2022-12-07T04:09:42;46.28;;;22.35;;
34317;SDS011;20582;52.196;20.952;2022-12-07T04:12:08;53.50;;;25.67;;
34317;SDS011;20582;52.196;20.952;2022-12-07T04:14:34;48.65;;;23.80;;
34317;SDS011;20582;52.196;20.952;2022-12-07T04:17:00;41.97;;;21.95;;
34317;SDS011;20582;52.196;20.952;2022-12-07T04:19:27;38.92;;;19.35;;
34317;SDS011;20582;52.196;20.952;2022-12-07T04:21:54;34.65;;;17.77;;
34317;SDS011;20582;52.196;20.952;2022-12-07T04:24:20;38.53;;;16.83;;
34317;SDS011;20582;52.196;20.952;2022-12-07T04:26:46;28.65;;;14.45;;
34317;SDS011;20582;52.196;20.952;2022-12-07T04:29:13;32.22;;;15.75;;
34317;SDS011;20582;52.196;20.952;2022-12-07T04:31:39;30.83;;;14.02;;
34317;SDS011;20582;52.196;20.952;2022-12-07T04:34:06;29.20;;;13.63;;
34317;SDS011;20582;52.196;20.952;2022-12-07T04:36:32;28.98;;;13.88;;
34317;SDS011;20582;52.196;20.952;2022-12-07T04:38:58;29.15;;;13.55;;
34317;SDS011;20582;52.196;20.952;2022-12-07T04:41:24;32.42;;;15.50;;
34317;SDS011;20582;52.196;20.952;2022-12-07T04:46:20;30.88;;;14.45;;
34317;SDS011;20582;52.196;20.952;2022-12-07T04:48:46;31.98;;;15.30;;
34317;SDS011;20582;52.196;20.952;2022-12-07T04:51:12;32.80;;;15.45;;
34317;SDS011;20582;52.196;20.952;2022-12-07T04:53:38;30.00;;;13.90;;
34317;SDS011;20582;52.196;20.952;2022-12-07T04:56:04;31.35;;;14.45;;
34317;SDS011;20582;52.196;20.952;2022-12-07T04:58:30;32.80;;;15.77;;
34317;SDS011;20582;52.196;20.952;2022-12-07T05:00:56;33.83;;;14.43;;
34317;SDS011;20582;52.196;20.952;2022-12-07T05:03:22;34.28;;;14.48;;
34317;SDS011;20582;52.196;20.952;2022-12-07T05:05:48;35.35;;;15.18;;
34317;SDS011;20582;52.196;20.952;2022-12-07T05:08:14;34.28;;;15.02;;
34317;SDS011;20582;52.196;20.952;2022-12-07T05:10:40;33.50;;;15.13;;
34317;SDS011;20582;52.196;20.952;2022-12-07T05:13:06;33.13;;;14.73;;
34317;SDS011;20582;52.196;20.952;2022-12-07T05:15:32;36.47;;;15.82;;
34317;SDS011;20582;52.196;20.952;2022-12-07T05:17:58;34.67;;;15.98;;
34317;SDS011;20582;52.196;20.952;2022-12-07T05:20:24;36.20;;;16.02;;
34317;SDS011;20582;52.196;20.952;2022-12-07T05:22:49;37.25;;;17.42;;
34317;SDS011;20582;52.196;20.952;2022-12-07T05:25:15;38.35;;;16.63;;
34317;SDS011;20582;52.196;20.952;2022-12-07T05:27:41;35.08;;;15.50;;
34317;SDS011;20582;52.196;20.952;2022-12-07T05:30:07;38.47;;;16.67;;
34317;SDS011;20582;52.196;20.952;2022-12-07T05:32:34;35.53;;;16.25;;
34317;SDS011;20582;52.196;20.952;2022-12-07T05:34:59;33.47;;;16.42;;
34317;SDS011;20582;52.196;20.952;2022-12-07T05:37:25;30.02;;;14.70;;
34317;SDS011;20582;52.196;20.952;2022-12-07T05:39:51;36.85;;;18.08;;
34317;SDS011;20582;52.196;20.952;2022-12-07T05:42:17;34.40;;;16.35;;
34317;SDS011;20582;52.196;20.952;2022-12-07T05:44:44;38.03;;;17.40;;
34317;SDS011;20582;52.196;20.952;2022-12-07T05:47:11;38.13;;;16.60;;
34317;SDS011;20582;52.196;20.952;2022-12-07T05:49:37;33.40;;;15.80;;
34317;SDS011;20582;52.196;20.952;2022-12-07T05:52:03;36.83;;;16.38;;
34317;SDS011;20582;52.196;20.952;2022-12-07T05:54:29;34.58;;;14.90;;
34317;SDS011;20582;52.196;20.952;2022-12-07T05:56:55;38.38;;;16.77;;
34317;SDS011;20582;52.196;20.952;2022-12-07T05:59:21;31.65;;;14.88;;
34317;SDS011;20582;52.196;20.952;2022-12-07T06:01:47;35.17;;;15.88;;
34317;SDS011;20582;52.196;20.952;2022-12-07T06:04:13;36.03;;;16.48;;
34317;SDS011;20582;52.196;20.952;2022-12-07T06:06:39;35.70;;;17.27;;
34317;SDS011;20582;52.196;20.952;2022-12-07T06:09:05;36.38;;;17.27;;
34317;SDS011;20582;52.196;20.952;2022-12-07T06:11:31;44.33;;;18.25;;
34317;SDS011;20582;52.196;20.952;2022-12-07T06:14:16;41.15;;;17.35;;
34317;SDS011;20582;52.196;20.952;2022-12-07T06:16:42;42.83;;;18.85;;
34317;SDS011;20582;52.196;20.952;2022-12-07T06:19:08;42.03;;;18.70;;
34317;SDS011;20582;52.196;20.952;2022-12-07T06:21:34;42.25;;;18.13;;
34317;SDS011;20582;52.196;20.952;2022-12-07T06:24:00;40.72;;;17.05;;
34317;SDS011;20582;52.196;20.952;2022-12-07T06:26:26;40.25;;;18.48;;
34317;SDS011;20582;52.196;20.952;2022-12-07T06:28:52;41.17;;;19.15;;
34317;SDS011;20582;52.196;20.952;2022-12-07T06:31:18;38.97;;;18.00;;
34317;SDS011;20582;52.196;20.952;2022-12-07T06:33:44;44.88;;;18.63;;
34317;SDS011;20582;52.196;20.952;2022-12-07T06:36:10;42.00;;;18.55;;
34317;SDS011;20582;52.196;20.952;2022-12-07T06:38:37;44.03;;;19.13;;
34317;SDS011;20582;52.196;20.952;2022-12-07T06:41:03;39.72;;;17.63;;
34317;SDS011;20582;52.196;20.952;2022-12-07T06:43:29;42.70;;;18.95;;
34317;SDS011;20582;52.196;20.952;2022-12-07T06:45:55;52.17;;;22.88;;
34317;SDS011;20582;52.196;20.952;2022-12-07T06:48:21;44.92;;;20.45;;
34317;SDS011;20582;52.196;20.952;2022-12-07T06:50:47;44.17;;;19.98;;
34317;SDS011;20582;52.196;20.952;2022-12-07T06:53:13;36.30;;;16.75;;
34317;SDS011;20582;52.196;20.952;2022-12-07T06:55:39;38.63;;;17.13;;
34317;SDS011;20582;52.196;20.952;2022-12-07T06:58:05;44.53;;;18.38;;
34317;SDS011;20582;52.196;20.952;2022-12-07T07:00:31;44.55;;;18.83;;
34317;SDS011;20582;52.196;20.952;2022-12-07T07:02:59;50.08;;;20.52;;
34317;SDS011;20582;52.196;20.952;2022-12-07T07:05:25;51.97;;;20.55;;
34317;SDS011;20582;52.196;20.952;2022-12-07T07:07:51;43.88;;;18.58;;
34317;SDS011;20582;52.196;20.952;2022-12-07T07:10:17;47.20;;;19.60;;
34317;SDS011;20582;52.196;20.952;2022-12-07T07:12:43;43.00;;;18.52;;
34317;SDS011;20582;52.196;20.952;2022-12-07T07:15:09;55.15;;;21.90;;
34317;SDS011;20582;52.196;20.952;2022-12-07T07:17:36;40.20;;;18.08;;
34317;SDS011;20582;52.196;20.952;2022-12-07T07:20:02;43.72;;;18.90;;
34317;SDS011;20582;52.196;20.952;2022-12-07T07:22:28;38.10;;;17.77;;
34317;SDS011;20582;52.196;20.952;2022-12-07T07:24:55;40.70;;;17.98;;
34317;SDS011;20582;52.196;20.952;2022-12-07T07:27:21;41.45;;;17.52;;
34317;SDS011;20582;52.196;20.952;2022-12-07T07:29:47;37.60;;;17.70;;
34317;SDS011;20582;52.196;20.952;2022-12-07T07:32:13;47.17;;;19.08;;
34317;SDS011;20582;52.196;20.952;2022-12-07T07:34:39;41.65;;;17.45;;
34317;SDS011;20582;52.196;20.952;2022-12-07T07:37:05;42.00;;;18.85;;
34317;SDS011;20582;52.196;20.952;2022-12-07T07:39:31;41.13;;;17.55;;
34317;SDS011;20582;52.196;20.952;2022-12-07T07:41:57;37.92;;;18.55;;
34317;SDS011;20582;52.196;20.952;2022-12-07T07:44:23;35.38;;;16.77;;
34317;SDS011;20582;52.196;20.952;2022-12-07T07:46:49;40.40;;;18.52;;
34317;SDS011;20582;52.196;20.952;2022-12-07T07:49:15;48.72;;;19.08;;
34317;SDS011;20582;52.196;20.952;2022-12-07T07:51:41;42.90;;;18.02;;
34317;SDS011;20582;52.196;20.952;2022-12-07T07:54:07;41.17;;;16.95;;
34317;SDS011;20582;52.196;20.952;2022-12-07T07:56:33;41.22;;;18.23;;
34317;SDS011;20582;52.196;20.952;2022-12-07T07:58:59;41.72;;;19.33;;
34317;SDS011;20582;52.196;20.952;2022-12-07T08:01:25;46.70;;;20.33;;
34317;SDS011;20582;52.196;20.952;2022-12-07T08:03:51;47.92;;;20.10;;
34317;SDS011;20582;52.196;20.952;2022-12-07T08:06:17;45.00;;;20.50;;
34317;SDS011;20582;52.196;20.952;2022-12-07T08:08:43;46.03;;;20.60;;
34317;SDS011;20582;52.196;20.952;2022-12-07T08:11:09;47.90;;;21.80;;
34317;SDS011;20582;52.196;20.952;2022-12-07T08:13:35;53.60;;;20.80;;
34317;SDS011;20582;52.196;20.952;2022-12-07T08:16:05;53.55;;;23.40;;
34317;SDS011;20582;52.196;20.952;2022-12-07T08:18:34;66.30;;;25.20;;
34317;SDS011;20582;52.196;20.952;2022-12-07T08:21:01;63.17;;;24.50;;
34317;SDS011;20582;52.196;20.952;2022-12-07T08:23:27;66.40;;;24.95;;
34317;SDS011;20582;52.196;20.952;2022-12-07T08:25:53;64.05;;;26.15;;
34317;SDS011;20582;52.196;20.952;2022-12-07T08:28:19;73.97;;;28.17;;
34317;SDS011;20582;52.196;20.952;2022-12-07T08:30:45;70.10;;;27.77;;
34317;SDS011;20582;52.196;20.952;2022-12-07T08:33:11;69.03;;;27.15;;
34317;SDS011;20582;52.196;20.952;2022-12-07T08:35:38;71.78;;;27.73;;
34317;SDS011;20582;52.196;20.952;2022-12-07T08:38:04;84.38;;;31.25;;
34317;SDS011;20582;52.196;20.952;2022-12-07T08:40:29;82.35;;;30.35;;
34317;SDS011;20582;52.196;20.952;2022-12-07T08:42:55;82.03;;;30.90;;
34317;SDS011;20582;52.196;20.952;2022-12-07T08:45:21;76.63;;;27.77;;
34317;SDS011;20582;52.196;20.952;2022-12-07T08:47:55;85.15;;;29.45;;
34317;SDS011;20582;52.196;20.952;2022-12-07T08:50:22;77.65;;;28.27;;
34317;SDS011;20582;52.196;20.952;2022-12-07T08:52:50;80.68;;;30.00;;
34317;SDS011;20582;52.196;20.952;2022-12-07T08:55:17;88.20;;;30.52;;
34317;SDS011;20582;52.196;20.952;2022-12-07T08:57:43;80.40;;;27.48;;
34317;SDS011;20582;52.196;20.952;2022-12-07T09:00:09;80.95;;;26.88;;
34317;SDS011;20582;52.196;20.952;2022-12-07T09:02:35;81.50;;;27.00;;
34317;SDS011;20582;52.196;20.952;2022-12-07T09:05:01;75.18;;;25.25;;
34317;SDS011;20582;52.196;20.952;2022-12-07T09:07:27;75.75;;;24.38;;
34317;SDS011;20582;52.196;20.952;2022-12-07T09:09:55;72.03;;;24.98;;
34317;SDS011;20582;52.196;20.952;2022-12-07T09:12:21;83.20;;;25.40;;
34317;SDS011;20582;52.196;20.952;2022-12-07T09:14:47;72.22;;;24.08;;
34317;SDS011;20582;52.196;20.952;2022-12-07T09:17:13;65.07;;;23.40;;
34317;SDS011;20582;52.196;20.952;2022-12-07T09:19:39;63.15;;;23.05;;
34317;SDS011;20582;52.196;20.952;2022-12-07T09:22:07;73.70;;;24.85;;
34317;SDS011;20582;52.196;20.952;2022-12-07T09:24:33;72.22;;;24.63;;
34317;SDS011;20582;52.196;20.952;2022-12-07T09:26:59;75.88;;;25.25;;
34317;SDS011;20582;52.196;20.952;2022-12-07T09:29:25;70.93;;;22.88;;
34317;SDS011;20582;52.196;20.952;2022-12-07T09:31:51;75.00;;;23.75;;
34317;SDS011;20582;52.196;20.952;2022-12-07T09:34:17;75.03;;;24.88;;
34317;SDS011;20582;52.196;20.952;2022-12-07T09:36:43;78.25;;;24.45;;
34317;SDS011;20582;52.196;20.952;2022-12-07T09:39:10;70.43;;;22.65;;
34317;SDS011;20582;52.196;20.952;2022-12-07T09:41:42;71.05;;;23.35;;
34317;SDS011;20582;52.196;20.952;2022-12-07T09:44:12;63.55;;;23.23;;
34317;SDS011;20582;52.196;20.952;2022-12-07T09:46:39;61.00;;;20.95;;
34317;SDS011;20582;52.196;20.952;2022-12-07T09:49:19;71.20;;;23.27;;
34317;SDS011;20582;52.196;20.952;2022-12-07T09:51:47;68.93;;;22.45;;
34317;SDS011;20582;52.196;20.952;2022-12-07T09:54:14;58.03;;;21.27;;
34317;SDS011;20582;52.196;20.952;2022-12-07T09:56:42;58.35;;;21.42;;
34317;SDS011;20582;52.196;20.952;2022-12-07T09:59:13;59.47;;;21.88;;
34317;SDS011;20582;52.196;20.952;2022-12-07T10:01:46;61.42;;;21.38;;
34317;SDS011;20582;52.196;20.952;2022-12-07T10:04:14;63.08;;;22.42;;
34317;SDS011;20582;52.196;20.952;2022-12-07T10:06:42;57.50;;;22.02;;
34317;SDS011;20582;52.196;20.952;2022-12-07T10:09:11;55.03;;;20.90;;
34317;SDS011;20582;52.196;20.952;2022-12-07T10:14:22;56.00;;;20.55;;
34317;SDS011;20582;52.196;20.952;2022-12-07T10:16:48;48.25;;;18.95;;
34317;SDS011;20582;52.196;20.952;2022-12-07T10:19:19;50.60;;;19.13;;
34317;SDS011;20582;52.196;20.952;2022-12-07T10:24:26;46.63;;;19.00;;
34317;SDS011;20582;52.196;20.952;2022-12-07T10:26:52;45.72;;;19.30;;
34317;SDS011;20582;52.196;20.952;2022-12-07T10:29:20;44.10;;;17.77;;
34317;SDS011;20582;52.196;20.952;2022-12-07T10:31:49;49.53;;;17.75;;
34317;SDS011;20582;52.196;20.952;2022-12-07T10:34:22;44.88;;;18.08;;
34317;SDS011;20582;52.196;20.952;2022-12-07T10:36:49;51.83;;;19.67;;
34317;SDS011;20582;52.196;20.952;2022-12-07T10:39:17;44.85;;;18.70;;
34317;SDS011;20582;52.196;20.952;2022-12-07T10:44:21;41.53;;;19.50;;
34317;SDS011;20582;52.196;20.952;2022-12-07T10:46:57;44.28;;;20.70;;
34317;SDS011;20582;52.196;20.952;2022-12-07T11:00:21;43.60;;;21.00;;
34317;SDS011;20582;52.196;20.952;2022-12-07T11:05:11;38.10;;;18.02;;
34317;SDS011;20582;52.196;20.952;2022-12-07T11:10:39;44.00;;;20.52;;
34317;SDS011;20582;52.196;20.952;2022-12-07T11:15:41;43.17;;;21.25;;
34317;SDS011;20582;52.196;20.952;2022-12-07T11:18:19;42.92;;;20.52;;
34317;SDS011;20582;52.196;20.952;2022-12-07T11:28:55;42.20;;;19.92;;
34317;SDS011;20582;52.196;20.952;2022-12-07T11:31:37;43.85;;;20.33;;
34317;SDS011;20582;52.196;20.952;2022-12-07T11:34:12;45.00;;;21.60;;
34317;SDS011;20582;52.196;20.952;2022-12-07T11:41:36;41.97;;;20.48;;
34317;SDS011;20582;52.196;20.952;2022-12-07T11:46:43;44.17;;;19.98;;
34317;SDS011;20582;52.196;20.952;2022-12-07T11:49:22;40.53;;;19.73;;
34317;SDS011;20582;52.196;20.952;2022-12-07T11:51:51;40.05;;;19.65;;
34317;SDS011;20582;52.196;20.952;2022-12-07T11:54:23;35.90;;;17.77;;
34317;SDS011;20582;52.196;20.952;2022-12-07T11:56:50;39.42;;;18.45;;
34317;SDS011;20582;52.196;20.952;2022-12-07T11:59:19;39.75;;;20.15;;
34317;SDS011;20582;52.196;20.952;2022-12-07T12:01:53;42.45;;;20.08;;
34317;SDS011;20582;52.196;20.952;2022-12-07T12:06:47;36.85;;;17.95;;
34317;SDS011;20582;52.196;20.952;2022-12-07T12:16:49;35.05;;;17.20;;
34317;SDS011;20582;52.196;20.952;2022-12-07T12:19:19;38.78;;;18.73;;
34317;SDS011;20582;52.196;20.952;2022-12-07T12:24:18;36.25;;;16.55;;
34317;SDS011;20582;52.196;20.952;2022-12-07T12:26:49;39.35;;;19.08;;
34317;SDS011;20582;52.196;20.952;2022-12-07T12:29:21;37.72;;;18.85;;
34317;SDS011;20582;52.196;20.952;2022-12-07T12:34:39;43.05;;;20.27;;
34317;SDS011;20582;52.196;20.952;2022-12-07T12:37:18;46.60;;;20.75;;
34317;SDS011;20582;52.196;20.952;2022-12-07T12:42:49;38.97;;;19.17;;
34317;SDS011;20582;52.196;20.952;2022-12-07T12:47:57;34.42;;;18.67;;
34317;SDS011;20582;52.196;20.952;2022-12-07T12:52:51;32.83;;;18.15;;
34317;SDS011;20582;52.196;20.952;2022-12-07T12:55:19;33.35;;;16.25;;
34317;SDS011;20582;52.196;20.952;2022-12-07T12:57:46;33.72;;;16.67;;
34317;SDS011;20582;52.196;20.952;2022-12-07T13:00:21;31.52;;;17.05;;
34317;SDS011;20582;52.196;20.952;2022-12-07T13:10:18;31.85;;;16.63;;
34317;SDS011;20582;52.196;20.952;2022-12-07T13:15:36;31.10;;;16.30;;
34317;SDS011;20582;52.196;20.952;2022-12-07T13:18:04;27.85;;;14.73;;
34317;SDS011;20582;52.196;20.952;2022-12-07T13:20:40;30.08;;;16.10;;
34317;SDS011;20582;52.196;20.952;2022-12-07T13:23:08;31.85;;;17.17;;
34317;SDS011;20582;52.196;20.952;2022-12-07T13:25:41;31.85;;;17.15;;
34317;SDS011;20582;52.196;20.952;2022-12-07T13:28:17;31.38;;;16.30;;
34317;SDS011;20582;52.196;20.952;2022-12-07T13:30:50;30.63;;;15.93;;
34317;SDS011;20582;52.196;20.952;2022-12-07T13:33:19;28.15;;;14.88;;
34317;SDS011;20582;52.196;20.952;2022-12-07T13:35:45;33.63;;;15.85;;
34317;SDS011;20582;52.196;20.952;2022-12-07T13:38:16;31.50;;;16.42;;
34317;SDS011;20582;52.196;20.952;2022-12-07T13:40:58;34.30;;;17.77;;
34317;SDS011;20582;52.196;20.952;2022-12-07T13:43:24;34.30;;;16.13;;
34317;SDS011;20582;52.196;20.952;2022-12-07T13:45:56;38.85;;;19.23;;
34317;SDS011;20582;52.196;20.952;2022-12-07T13:48:32;31.15;;;16.73;;
34317;SDS011;20582;52.196;20.952;2022-12-07T13:51:00;33.72;;;17.75;;
34317;SDS011;20582;52.196;20.952;2022-12-07T13:53:26;32.83;;;18.02;;
34317;SDS011;20582;52.196;20.952;2022-12-07T13:55:55;33.00;;;18.20;;
34317;SDS011;20582;52.196;20.952;2022-12-07T13:58:21;33.13;;;17.55;;
34317;SDS011;20582;52.196;20.952;2022-12-07T14:00:48;31.35;;;17.02;;
34317;SDS011;20582;52.196;20.952;2022-12-07T14:05:40;33.03;;;19.25;;
34317;SDS011;20582;52.196;20.952;2022-12-07T14:15:50;35.72;;;18.80;;
34317;SDS011;20582;52.196;20.952;2022-12-07T14:18:26;33.63;;;18.35;;
34317;SDS011;20582;52.196;20.952;2022-12-07T14:21:02;37.65;;;18.77;;
34317;SDS011;20582;52.196;20.952;2022-12-07T14:23:28;35.10;;;19.05;;
34317;SDS011;20582;52.196;20.952;2022-12-07T14:26:03;36.35;;;20.00;;
34317;SDS011;20582;52.196;20.952;2022-12-07T14:28:31;35.25;;;19.75;;
34317;SDS011;20582;52.196;20.952;2022-12-07T14:30:58;36.67;;;19.13;;
34317;SDS011;20582;52.196;20.952;2022-12-07T14:33:24;36.30;;;20.40;;
34317;SDS011;20582;52.196;20.952;2022-12-07T14:35:50;40.47;;;21.90;;
34317;SDS011;20582;52.196;20.952;2022-12-07T14:38:20;37.45;;;18.85;;
34317;SDS011;20582;52.196;20.952;2022-12-07T14:40:47;39.13;;;19.90;;
34317;SDS011;20582;52.196;20.952;2022-12-07T14:43:14;34.40;;;17.92;;
34317;SDS011;20582;52.196;20.952;2022-12-07T14:45:40;35.72;;;19.50;;
34317;SDS011;20582;52.196;20.952;2022-12-07T14:48:10;39.60;;;19.73;;
34317;SDS011;20582;52.196;20.952;2022-12-07T14:50:37;41.42;;;20.38;;
34317;SDS011;20582;52.196;20.952;2022-12-07T14:53:08;35.47;;;19.35;;
34317;SDS011;20582;52.196;20.952;2022-12-07T14:55:36;39.15;;;20.85;;
34317;SDS011;20582;52.196;20.952;2022-12-07T14:58:02;41.45;;;21.45;;
34317;SDS011;20582;52.196;20.952;2022-12-07T15:00:28;41.97;;;22.80;;
34317;SDS011;20582;52.196;20.952;2022-12-07T15:02:54;40.95;;;19.70;;
34317;SDS011;20582;52.196;20.952;2022-12-07T15:05:20;37.78;;;18.92;;
34317;SDS011;20582;52.196;20.952;2022-12-07T15:07:47;39.63;;;20.23;;
34317;SDS011;20582;52.196;20.952;2022-12-07T15:10:17;43.35;;;20.85;;
34317;SDS011;20582;52.196;20.952;2022-12-07T15:12:44;37.67;;;19.67;;
34317;SDS011;20582;52.196;20.952;2022-12-07T15:15:10;37.13;;;19.75;;
34317;SDS011;20582;52.196;20.952;2022-12-07T15:17:36;41.33;;;20.92;;
34317;SDS011;20582;52.196;20.952;2022-12-07T15:20:02;41.95;;;20.17;;
34317;SDS011;20582;52.196;20.952;2022-12-07T15:22:28;41.08;;;21.20;;
34317;SDS011;20582;52.196;20.952;2022-12-07T15:24:56;41.97;;;21.42;;
34317;SDS011;20582;52.196;20.952;2022-12-07T15:27:22;43.17;;;21.60;;
34317;SDS011;20582;52.196;20.952;2022-12-07T15:29:48;48.00;;;21.70;;
34317;SDS011;20582;52.196;20.952;2022-12-07T15:32:14;45.95;;;23.35;;
34317;SDS011;20582;52.196;20.952;2022-12-07T15:34:40;44.30;;;21.52;;
34317;SDS011;20582;52.196;20.952;2022-12-07T15:37:06;49.75;;;23.25;;
34317;SDS011;20582;52.196;20.952;2022-12-07T15:39:32;42.83;;;22.27;;
34317;SDS011;20582;52.196;20.952;2022-12-07T15:41:58;44.35;;;20.73;;
34317;SDS011;20582;52.196;20.952;2022-12-07T15:44:24;46.90;;;22.23;;
34317;SDS011;20582;52.196;20.952;2022-12-07T15:47:08;42.38;;;20.17;;
34317;SDS011;20582;52.196;20.952;2022-12-07T15:49:35;43.17;;;20.48;;
34317;SDS011;20582;52.196;20.952;2022-12-07T15:52:00;39.33;;;20.23;;
34317;SDS011;20582;52.196;20.952;2022-12-07T15:54:27;37.90;;;19.35;;
34317;SDS011;20582;52.196;20.952;2022-12-07T15:56:54;49.95;;;21.65;;
34317;SDS011;20582;52.196;20.952;2022-12-07T15:59:20;42.05;;;21.10;;
34317;SDS011;20582;52.196;20.952;2022-12-07T16:01:46;47.55;;;21.42;;
34317;SDS011;20582;52.196;20.952;2022-12-07T16:04:12;44.90;;;21.73;;
34317;SDS011;20582;52.196;20.952;2022-12-07T16:06:38;53.40;;;24.00;;